sensor_id;sensor_type;location;lat;lon;timestamp;P1;durP1;ratioP1;P2;durP2;ratioP2
12713;SDS011;6421;44.470;11.270;2022-07-23T00:01:21;10.35;;;9.35;;
12713;SDS011;6421;44.470;11.270;2022-07-23T00:03:47;9.63;;;8.52;;
12713;SDS011;6421;44.470;11.270;2022-07-23T00:06:14;10.05;;;9.02;;
12713;SDS011;6421;44.470;11.270;2022-07-23T00:08:39;9.95;;;9.05;;
12713;SDS011;6421;44.470;11.270;2022-07-23T00:11:05;9.95;;;8.93;;
12713;SDS011;6421;44.470;11.270;2022-07-23T00:13:30;9.85;;;8.68;;
12713;SDS011;6421;44.470;11.270;2022-07-23T00:15:56;10.25;;;9.23;;
12713;SDS011;6421;44.470;11.270;2022-07-23T00:18:22;12.52;;;9.05;;
12713;SDS011;6421;44.470;11.270;2022-07-23T00:20:47;9.65;;;8.65;;
12713;SDS011;6421;44.470;11.270;2022-07-23T00:23:13;10.40;;;9.07;;
12713;SDS011;6421;44.470;11.270;2022-07-23T00:25:39;10.07;;;9.07;;
12713;SDS011;6421;44.470;11.270;2022-07-23T00:28:05;10.27;;;9.43;;
12713;SDS011;6421;44.470;11.270;2022-07-23T00:30:30;10.05;;;9.07;;
12713;SDS011;6421;44.470;11.270;2022-07-23T00:32:58;10.18;;;9.20;;
12713;SDS011;6421;44.470;11.270;2022-07-23T00:35:29;9.85;;;8.88;;
12713;SDS011;6421;44.470;11.270;2022-07-23T00:37:57;10.07;;;9.18;;
12713;SDS011;6421;44.470;11.270;2022-07-23T00:40:23;10.27;;;9.20;;
12713;SDS011;6421;44.470;11.270;2022-07-23T00:42:50;9.98;;;9.10;;
12713;SDS011;6421;44.470;11.270;2022-07-23T00:45:15;11.88;;;9.45;;
12713;SDS011;6421;44.470;11.270;2022-07-23T00:47:41;11.27;;;9.63;;
12713;SDS011;6421;44.470;11.270;2022-07-23T00:50:07;10.13;;;9.13;;
12713;SDS011;6421;44.470;11.270;2022-07-23T00:52:34;10.43;;;8.80;;
12713;SDS011;6421;44.470;11.270;2022-07-23T00:55:01;9.93;;;9.02;;
12713;SDS011;6421;44.470;11.270;2022-07-23T00:57:27;12.00;;;9.15;;
12713;SDS011;6421;44.470;11.270;2022-07-23T00:59:53;9.65;;;8.75;;
12713;SDS011;6421;44.470;11.270;2022-07-23T01:02:19;9.40;;;8.60;;
12713;SDS011;6421;44.470;11.270;2022-07-23T01:04:44;11.52;;;9.13;;
12713;SDS011;6421;44.470;11.270;2022-07-23T01:07:10;10.85;;;9.05;;
12713;SDS011;6421;44.470;11.270;2022-07-23T01:09:36;10.32;;;9.07;;
12713;SDS011;6421;44.470;11.270;2022-07-23T01:12:02;10.98;;;8.63;;
12713;SDS011;6421;44.470;11.270;2022-07-23T01:14:28;12.10;;;9.45;;
12713;SDS011;6421;44.470;11.270;2022-07-23T01:16:53;9.70;;;8.82;;
12713;SDS011;6421;44.470;11.270;2022-07-23T01:19:19;11.55;;;8.82;;
12713;SDS011;6421;44.470;11.270;2022-07-23T01:21:50;10.10;;;9.05;;
12713;SDS011;6421;44.470;11.270;2022-07-23T01:24:16;10.40;;;9.38;;
12713;SDS011;6421;44.470;11.270;2022-07-23T01:26:45;11.18;;;8.73;;
12713;SDS011;6421;44.470;11.270;2022-07-23T01:29:11;10.65;;;8.57;;
12713;SDS011;6421;44.470;11.270;2022-07-23T01:31:37;10.05;;;9.10;;
12713;SDS011;6421;44.470;11.270;2022-07-23T01:34:04;10.30;;;8.88;;
12713;SDS011;6421;44.470;11.270;2022-07-23T01:36:32;10.13;;;9.32;;
12713;SDS011;6421;44.470;11.270;2022-07-23T01:39:01;9.55;;;8.55;;
12713;SDS011;6421;44.470;11.270;2022-07-23T01:41:28;9.98;;;9.07;;
12713;SDS011;6421;44.470;11.270;2022-07-23T01:43:54;10.68;;;8.82;;
12713;SDS011;6421;44.470;11.270;2022-07-23T01:46:19;10.07;;;9.10;;
12713;SDS011;6421;44.470;11.270;2022-07-23T01:48:45;10.18;;;8.80;;
12713;SDS011;6421;44.470;11.270;2022-07-23T01:51:11;9.82;;;8.82;;
12713;SDS011;6421;44.470;11.270;2022-07-23T01:53:36;10.05;;;8.88;;
12713;SDS011;6421;44.470;11.270;2022-07-23T01:56:02;10.50;;;9.38;;
12713;SDS011;6421;44.470;11.270;2022-07-23T01:58:28;10.05;;;9.07;;
12713;SDS011;6421;44.470;11.270;2022-07-23T02:00:54;12.18;;;9.32;;
12713;SDS011;6421;44.470;11.270;2022-07-23T02:03:20;9.80;;;8.80;;
12713;SDS011;6421;44.470;11.270;2022-07-23T02:05:47;9.80;;;8.60;;
12713;SDS011;6421;44.470;11.270;2022-07-23T02:08:12;10.07;;;8.98;;
12713;SDS011;6421;44.470;11.270;2022-07-23T02:10:38;9.68;;;8.82;;
12713;SDS011;6421;44.470;11.270;2022-07-23T02:13:04;9.48;;;8.52;;
12713;SDS011;6421;44.470;11.270;2022-07-23T02:15:29;11.82;;;8.93;;
12713;SDS011;6421;44.470;11.270;2022-07-23T02:17:55;10.57;;;9.18;;
12713;SDS011;6421;44.470;11.270;2022-07-23T02:20:21;9.82;;;8.85;;
12713;SDS011;6421;44.470;11.270;2022-07-23T02:22:47;9.43;;;8.48;;
12713;SDS011;6421;44.470;11.270;2022-07-23T02:25:13;9.45;;;8.55;;
12713;SDS011;6421;44.470;11.270;2022-07-23T02:27:39;12.23;;;8.95;;
12713;SDS011;6421;44.470;11.270;2022-07-23T02:30:05;10.27;;;9.38;;
12713;SDS011;6421;44.470;11.270;2022-07-23T02:32:31;10.10;;;8.98;;
12713;SDS011;6421;44.470;11.270;2022-07-23T02:34:57;9.50;;;8.50;;
12713;SDS011;6421;44.470;11.270;2022-07-23T02:37:23;10.55;;;8.73;;
12713;SDS011;6421;44.470;11.270;2022-07-23T02:39:48;11.27;;;9.65;;
12713;SDS011;6421;44.470;11.270;2022-07-23T02:42:14;9.55;;;8.63;;
12713;SDS011;6421;44.470;11.270;2022-07-23T02:44:40;9.07;;;8.38;;
12713;SDS011;6421;44.470;11.270;2022-07-23T02:47:06;9.60;;;8.70;;
12713;SDS011;6421;44.470;11.270;2022-07-23T02:49:32;10.50;;;8.73;;
12713;SDS011;6421;44.470;11.270;2022-07-23T02:51:57;11.07;;;9.15;;
12713;SDS011;6421;44.470;11.270;2022-07-23T02:54:23;9.30;;;8.35;;
12713;SDS011;6421;44.470;11.270;2022-07-23T02:56:49;11.15;;;8.52;;
12713;SDS011;6421;44.470;11.270;2022-07-23T02:59:16;9.93;;;9.00;;
12713;SDS011;6421;44.470;11.270;2022-07-23T03:01:42;10.35;;;8.65;;
12713;SDS011;6421;44.470;11.270;2022-07-23T03:04:07;9.65;;;8.65;;
12713;SDS011;6421;44.470;11.270;2022-07-23T03:06:33;9.63;;;8.50;;
12713;SDS011;6421;44.470;11.270;2022-07-23T03:08:59;9.73;;;8.85;;
12713;SDS011;6421;44.470;11.270;2022-07-23T03:11:24;9.63;;;8.75;;
12713;SDS011;6421;44.470;11.270;2022-07-23T03:13:50;9.82;;;8.75;;
12713;SDS011;6421;44.470;11.270;2022-07-23T03:16:16;9.90;;;8.35;;
12713;SDS011;6421;44.470;11.270;2022-07-23T03:18:41;10.55;;;9.45;;
12713;SDS011;6421;44.470;11.270;2022-07-23T03:21:07;11.63;;;8.75;;
12713;SDS011;6421;44.470;11.270;2022-07-23T03:23:33;10.57;;;8.48;;
12713;SDS011;6421;44.470;11.270;2022-07-23T03:25:59;9.70;;;8.80;;
12713;SDS011;6421;44.470;11.270;2022-07-23T03:28:24;9.32;;;8.43;;
12713;SDS011;6421;44.470;11.270;2022-07-23T03:30:50;9.88;;;9.00;;
12713;SDS011;6421;44.470;11.270;2022-07-23T03:33:16;10.18;;;8.38;;
12713;SDS011;6421;44.470;11.270;2022-07-23T03:35:43;11.40;;;9.10;;
12713;SDS011;6421;44.470;11.270;2022-07-23T03:38:09;9.98;;;8.75;;
12713;SDS011;6421;44.470;11.270;2022-07-23T03:40:35;9.98;;;8.95;;
12713;SDS011;6421;44.470;11.270;2022-07-23T03:43:01;10.27;;;9.13;;
12713;SDS011;6421;44.470;11.270;2022-07-23T03:45:27;9.18;;;8.38;;
12713;SDS011;6421;44.470;11.270;2022-07-23T03:47:53;10.00;;;9.00;;
12713;SDS011;6421;44.470;11.270;2022-07-23T03:50:18;9.70;;;8.73;;
12713;SDS011;6421;44.470;11.270;2022-07-23T03:52:44;9.65;;;8.60;;
12713;SDS011;6421;44.470;11.270;2022-07-23T03:55:10;10.73;;;8.85;;
12713;SDS011;6421;44.470;11.270;2022-07-23T03:57:35;10.20;;;9.37;;
12713;SDS011;6421;44.470;11.270;2022-07-23T04:00:02;9.83;;;8.90;;
12713;SDS011;6421;44.470;11.270;2022-07-23T04:02:30;10.23;;;8.90;;
12713;SDS011;6421;44.470;11.270;2022-07-23T04:04:56;9.82;;;8.82;;
12713;SDS011;6421;44.470;11.270;2022-07-23T04:07:21;9.63;;;8.77;;
12713;SDS011;6421;44.470;11.270;2022-07-23T04:09:47;9.83;;;8.93;;
12713;SDS011;6421;44.470;11.270;2022-07-23T04:12:13;8.98;;;8.18;;
12713;SDS011;6421;44.470;11.270;2022-07-23T04:14:39;9.20;;;8.40;;
12713;SDS011;6421;44.470;11.270;2022-07-23T04:17:05;25.17;;;9.67;;
12713;SDS011;6421;44.470;11.270;2022-07-23T04:19:31;10.27;;;8.77;;
12713;SDS011;6421;44.470;11.270;2022-07-23T04:21:57;13.33;;;8.90;;
12713;SDS011;6421;44.470;11.270;2022-07-23T04:24:22;11.90;;;8.50;;
12713;SDS011;6421;44.470;11.270;2022-07-23T04:26:48;9.50;;;8.50;;
12713;SDS011;6421;44.470;11.270;2022-07-23T04:29:14;8.90;;;8.10;;
12713;SDS011;6421;44.470;11.270;2022-07-23T04:31:40;9.70;;;8.60;;
12713;SDS011;6421;44.470;11.270;2022-07-23T04:34:05;9.60;;;8.60;;
12713;SDS011;6421;44.470;11.270;2022-07-23T04:36:31;8.85;;;8.07;;
12713;SDS011;6421;44.470;11.270;2022-07-23T04:38:56;8.73;;;7.97;;
12713;SDS011;6421;44.470;11.270;2022-07-23T04:41:22;9.73;;;8.70;;
12713;SDS011;6421;44.470;11.270;2022-07-23T04:43:48;9.10;;;8.23;;
12713;SDS011;6421;44.470;11.270;2022-07-23T04:46:13;9.88;;;8.90;;
12713;SDS011;6421;44.470;11.270;2022-07-23T04:48:39;10.10;;;8.55;;
12713;SDS011;6421;44.470;11.270;2022-07-23T04:51:05;11.07;;;8.57;;
12713;SDS011;6421;44.470;11.270;2022-07-23T04:53:31;9.73;;;8.93;;
12713;SDS011;6421;44.470;11.270;2022-07-23T04:55:56;9.83;;;8.87;;
12713;SDS011;6421;44.470;11.270;2022-07-23T04:58:22;11.60;;;8.88;;
12713;SDS011;6421;44.470;11.270;2022-07-23T05:00:48;9.15;;;8.23;;
12713;SDS011;6421;44.470;11.270;2022-07-23T05:03:13;10.10;;;9.10;;
12713;SDS011;6421;44.470;11.270;2022-07-23T05:05:39;10.00;;;9.00;;
12713;SDS011;6421;44.470;11.270;2022-07-23T05:08:05;9.73;;;8.75;;
12713;SDS011;6421;44.470;11.270;2022-07-23T05:10:30;9.48;;;8.48;;
12713;SDS011;6421;44.470;11.270;2022-07-23T05:12:56;11.63;;;8.00;;
12713;SDS011;6421;44.470;11.270;2022-07-23T05:15:22;9.70;;;8.40;;
12713;SDS011;6421;44.470;11.270;2022-07-23T05:17:48;9.90;;;8.85;;
12713;SDS011;6421;44.470;11.270;2022-07-23T05:20:14;9.60;;;8.57;;
12713;SDS011;6421;44.470;11.270;2022-07-23T05:22:39;10.90;;;7.90;;
12713;SDS011;6421;44.470;11.270;2022-07-23T05:25:06;11.32;;;8.88;;
12713;SDS011;6421;44.470;11.270;2022-07-23T05:27:32;9.32;;;8.32;;
12713;SDS011;6421;44.470;11.270;2022-07-23T05:29:57;11.43;;;8.95;;
12713;SDS011;6421;44.470;11.270;2022-07-23T05:32:23;9.27;;;8.38;;
12713;SDS011;6421;44.470;11.270;2022-07-23T05:34:49;9.63;;;8.63;;
12713;SDS011;6421;44.470;11.270;2022-07-23T05:37:15;9.02;;;8.18;;
12713;SDS011;6421;44.470;11.270;2022-07-23T05:39:40;9.93;;;9.02;;
12713;SDS011;6421;44.470;11.270;2022-07-23T05:42:06;10.43;;;9.43;;
12713;SDS011;6421;44.470;11.270;2022-07-23T05:44:32;9.93;;;8.40;;
12713;SDS011;6421;44.470;11.270;2022-07-23T05:46:58;9.90;;;8.80;;
12713;SDS011;6421;44.470;11.270;2022-07-23T05:49:24;10.15;;;8.63;;
12713;SDS011;6421;44.470;11.270;2022-07-23T05:51:50;9.98;;;7.68;;
12713;SDS011;6421;44.470;11.270;2022-07-23T05:54:15;9.35;;;8.38;;
12713;SDS011;6421;44.470;11.270;2022-07-23T05:56:41;9.25;;;8.35;;
12713;SDS011;6421;44.470;11.270;2022-07-23T05:59:07;10.57;;;7.57;;
12713;SDS011;6421;44.470;11.270;2022-07-23T06:01:33;9.52;;;7.85;;
12713;SDS011;6421;44.470;11.270;2022-07-23T06:03:58;9.05;;;8.02;;
12713;SDS011;6421;44.470;11.270;2022-07-23T06:06:24;10.55;;;7.88;;
12713;SDS011;6421;44.470;11.270;2022-07-23T06:08:50;29.38;;;9.75;;
12713;SDS011;6421;44.470;11.270;2022-07-23T06:11:15;9.38;;;7.57;;
12713;SDS011;6421;44.470;11.270;2022-07-23T06:13:41;11.52;;;8.00;;
12713;SDS011;6421;44.470;11.270;2022-07-23T06:16:06;8.25;;;7.30;;
12713;SDS011;6421;44.470;11.270;2022-07-23T06:18:32;17.90;;;8.77;;
12713;SDS011;6421;44.470;11.270;2022-07-23T06:20:58;8.25;;;6.57;;
12713;SDS011;6421;44.470;11.270;2022-07-23T06:23:23;7.97;;;7.00;;
12713;SDS011;6421;44.470;11.270;2022-07-23T06:25:49;8.23;;;7.40;;
12713;SDS011;6421;44.470;11.270;2022-07-23T06:28:15;8.45;;;7.45;;
12713;SDS011;6421;44.470;11.270;2022-07-23T06:30:40;12.50;;;6.95;;
12713;SDS011;6421;44.470;11.270;2022-07-23T06:33:06;6.50;;;6.03;;
12713;SDS011;6421;44.470;11.270;2022-07-23T06:35:32;8.18;;;7.38;;
12713;SDS011;6421;44.470;11.270;2022-07-23T06:37:58;18.60;;;8.02;;
12713;SDS011;6421;44.470;11.270;2022-07-23T06:40:24;8.18;;;7.03;;
12713;SDS011;6421;44.470;11.270;2022-07-23T06:42:50;8.75;;;7.65;;
12713;SDS011;6421;44.470;11.270;2022-07-23T06:45:16;8.55;;;7.70;;
12713;SDS011;6421;44.470;11.270;2022-07-23T06:47:42;8.70;;;7.65;;
12713;SDS011;6421;44.470;11.270;2022-07-23T06:50:07;6.68;;;6.13;;
12713;SDS011;6421;44.470;11.270;2022-07-23T06:52:34;8.70;;;7.55;;
12713;SDS011;6421;44.470;11.270;2022-07-23T06:54:59;9.65;;;7.03;;
12713;SDS011;6421;44.470;11.270;2022-07-23T06:57:25;7.40;;;6.70;;
12713;SDS011;6421;44.470;11.270;2022-07-23T06:59:51;5.43;;;4.95;;
12713;SDS011;6421;44.470;11.270;2022-07-23T07:02:16;5.97;;;5.47;;
12713;SDS011;6421;44.470;11.270;2022-07-23T07:04:42;6.45;;;5.78;;
12713;SDS011;6421;44.470;11.270;2022-07-23T07:07:08;5.78;;;5.38;;
12713;SDS011;6421;44.470;11.270;2022-07-23T07:09:33;5.85;;;5.30;;
12713;SDS011;6421;44.470;11.270;2022-07-23T07:11:59;6.20;;;5.70;;
12713;SDS011;6421;44.470;11.270;2022-07-23T07:14:25;6.47;;;5.97;;
12713;SDS011;6421;44.470;11.270;2022-07-23T07:16:51;6.65;;;6.05;;
12713;SDS011;6421;44.470;11.270;2022-07-23T07:19:16;6.72;;;6.18;;
12713;SDS011;6421;44.470;11.270;2022-07-23T07:21:42;5.75;;;5.35;;
12713;SDS011;6421;44.470;11.270;2022-07-23T07:24:07;5.78;;;5.38;;
12713;SDS011;6421;44.470;11.270;2022-07-23T07:26:33;8.20;;;7.53;;
